Time;durP1;ratioP1;P1;durP2;ratioP2;P2;SDS_P1;SDS_P2;PMS_P1;PMS_P2;Temp;Humidity;BMP_temperature;BMP_pressure;BME280_temperature;BME280_humidity;BME280_pressure;Samples;Min_cycle;Max_cycle;Signal;HPM_P1;HPM_P2
2023/05/12 00:00:16;;;;;;;7.80;7.10;;;14.20;99.90;;;;;;4997390;28;20279;-86
2023/05/12 00:02:41;;;;;;;7.67;6.97;;;14.30;99.90;;;;;;5015862;28;20184;-87
2023/05/12 00:05:08;;;;;;;7.03;6.40;;;14.20;99.90;;;;;;5015870;28;20264;-87
2023/05/12 00:07:34;;;;;;;7.30;6.70;;;14.20;99.90;;;;;;5015827;28;20209;-87
2023/05/12 00:10:00;;;;;;;7.90;7.13;;;14.20;99.90;;;;;;5016956;28;20204;-86
2023/05/12 00:12:25;;;;;;;7.70;7.10;;;14.20;99.90;;;;;;5015784;28;20199;-87
2023/05/12 00:14:51;;;;;;;7.90;7.27;;;14.30;99.90;;;;;;5016163;28;20181;-87
2023/05/12 00:17:17;;;;;;;7.67;7.03;;;14.20;99.90;;;;;;4998224;28;20213;-88
2023/05/12 00:19:43;;;;;;;7.97;7.37;;;14.10;99.90;;;;;;5000304;28;20192;-86
2023/05/12 00:22:10;;;;;;;8.03;7.43;;;14.10;99.90;;;;;;5012341;28;20208;-87
2023/05/12 00:24:36;;;;;;;8.20;7.50;;;14.10;99.90;;;;;;4995552;28;20210;-88
2023/05/12 00:27:02;;;;;;;8.73;8.03;;;14.10;99.90;;;;;;5013174;28;20199;-86
2023/05/12 00:29:27;;;;;;;8.53;7.83;;;14.10;99.90;;;;;;5013835;28;20168;-87
2023/05/12 00:31:54;;;;;;;8.53;7.83;;;14.10;99.90;;;;;;5013246;28;20182;-88
2023/05/12 00:34:20;;;;;;;8.50;7.80;;;14.10;99.90;;;;;;5013812;28;20170;-87
2023/05/12 00:36:46;;;;;;;9.50;8.60;;;14.20;99.90;;;;;;5015154;28;20192;-87
2023/05/12 00:39:11;;;;;;;9.33;8.53;;;14.20;99.90;;;;;;5016269;28;20237;-88
2023/05/12 00:41:37;;;;;;;9.80;8.90;;;14.10;99.90;;;;;;5016188;28;20181;-88
2023/05/12 00:44:03;;;;;;;9.63;8.83;;;14.20;99.90;;;;;;5016306;28;20240;-88
2023/05/12 00:46:29;;;;;;;9.50;8.63;;;14.20;99.90;;;;;;4998719;28;20209;-87
2023/05/12 00:48:55;;;;;;;10.17;9.37;;;14.20;99.90;;;;;;5015448;28;20243;-87
2023/05/12 00:51:22;;;;;;;9.87;9.07;;;14.10;99.90;;;;;;4997066;28;20189;-87
2023/05/12 00:53:48;;;;;;;10.63;9.63;;;14.00;99.90;;;;;;4977675;28;20218;-87
2023/05/12 00:56:15;;;;;;;9.80;8.90;;;14.00;99.90;;;;;;4994506;28;20651;-87
2023/05/12 00:58:41;;;;;;;10.93;9.77;;;14.10;99.90;;;;;;4995106;28;20349;-87
2023/05/12 01:01:07;;;;;;;10.40;9.47;;;14.00;99.90;;;;;;4978769;28;20235;-87
2023/05/12 01:03:33;;;;;;;10.00;9.20;;;14.00;99.90;;;;;;5005337;28;20220;-88
2023/05/12 01:06:09;;;;;;;10.23;9.37;;;14.10;99.90;;;;;;5015889;28;20749;-88
2023/05/12 01:08:36;;;;;;;9.80;9.00;;;14.10;99.90;;;;;;5016050;28;20192;-88
2023/05/12 01:11:02;;;;;;;9.40;8.50;;;14.00;99.90;;;;;;5014311;28;20189;-88
2023/05/12 01:13:27;;;;;;;9.17;8.37;;;14.00;99.90;;;;;;4997392;28;20185;-87
2023/05/12 01:15:58;;;;;;;8.83;7.93;;;14.00;99.90;;;;;;4997128;28;20839;-89
2023/05/12 01:18:26;;;;;;;8.40;7.60;;;13.90;99.90;;;;;;5012960;28;20216;-86
2023/05/12 01:20:54;;;;;;;8.27;7.57;;;13.90;99.90;;;;;;5013759;28;20277;-89
2023/05/12 01:23:30;;;;;;;9.07;8.00;;;13.90;99.90;;;;;;5014016;28;20173;-91
2023/05/12 01:26:09;;;;;;;10.03;8.83;;;13.90;99.90;;;;;;5013205;28;20164;-87
2023/05/12 01:28:36;;;;;;;8.70;7.97;;;13.90;99.90;;;;;;5014049;28;20207;-87
2023/05/12 01:31:03;;;;;;;8.63;7.93;;;13.90;99.90;;;;;;5014539;28;20621;-87
2023/05/12 01:33:29;;;;;;;9.23;8.53;;;14.00;99.90;;;;;;5013523;28;20180;-87
2023/05/12 01:35:55;;;;;;;9.53;8.73;;;14.10;99.90;;;;;;4998605;28;20187;-88
2023/05/12 01:38:21;;;;;;;9.53;8.83;;;14.10;99.90;;;;;;5019843;28;20200;-87
2023/05/12 01:40:47;;;;;;;8.83;8.13;;;14.20;99.90;;;;;;5002246;28;20263;-88
2023/05/12 01:43:13;;;;;;;9.50;8.80;;;14.30;99.90;;;;;;5019919;28;20219;-88
2023/05/12 01:45:38;;;;;;;8.77;7.97;;;14.20;99.90;;;;;;5019279;28;20175;-87
2023/05/12 01:48:04;;;;;;;9.27;8.43;;;14.20;99.90;;;;;;5018491;28;20203;-87
2023/05/12 01:50:30;;;;;;;9.23;8.47;;;14.20;99.90;;;;;;5015940;28;20182;-87
2023/05/12 01:52:56;;;;;;;10.03;9.13;;;14.20;99.90;;;;;;5017450;28;20198;-88
2023/05/12 01:55:22;;;;;;;9.17;8.47;;;14.30;99.90;;;;;;4999503;28;20187;-89
2023/05/12 01:57:47;;;;;;;10.37;9.53;;;14.30;99.90;;;;;;5016256;28;20593;-87
2023/05/12 02:00:13;;;;;;;9.40;8.60;;;14.20;99.90;;;;;;5015885;28;20536;-88
2023/05/12 02:02:40;;;;;;;10.10;9.17;;;14.10;99.90;;;;;;5015849;28;20183;-87
2023/05/12 02:05:07;;;;;;;10.13;9.33;;;14.20;99.90;;;;;;5017612;28;20179;-88
2023/05/12 02:07:32;;;;;;;10.50;9.60;;;14.10;99.90;;;;;;5016103;28;20222;-88
2023/05/12 02:09:58;;;;;;;10.27;9.47;;;14.10;99.90;;;;;;5016414;28;20185;-87
2023/05/12 02:12:23;;;;;;;10.17;9.27;;;14.10;99.90;;;;;;4999050;28;20282;-88
2023/05/12 02:14:49;;;;;;;11.07;9.80;;;14.20;99.90;;;;;;5017139;28;20213;-89
2023/05/12 02:17:16;;;;;;;10.23;9.23;;;14.20;99.90;;;;;;5015305;28;20177;-87
2023/05/12 02:19:41;;;;;;;11.87;10.00;;;14.10;99.90;;;;;;5009689;28;20584;-88
2023/05/12 02:22:07;;;;;;;10.77;9.93;;;14.20;99.90;;;;;;4995160;28;20185;-88
2023/05/12 02:24:33;;;;;;;10.63;9.83;;;14.10;99.90;;;;;;4995469;28;20399;-87
2023/05/12 02:26:59;;;;;;;10.43;9.53;;;14.10;99.90;;;;;;4994059;28;20201;-87
2023/05/12 02:29:24;;;;;;;11.40;10.33;;;14.10;99.90;;;;;;4995555;28;20175;-87
2023/05/12 02:31:50;;;;;;;10.70;9.70;;;14.10;99.90;;;;;;5005277;28;20196;-86
2023/05/12 02:34:16;;;;;;;11.20;10.20;;;14.20;99.90;;;;;;5016827;28;20174;-87
2023/05/12 02:36:42;;;;;;;11.87;10.83;;;14.20;99.90;;;;;;5016709;28;20195;-87
2023/05/12 02:39:07;;;;;;;12.07;10.97;;;14.10;99.90;;;;;;4997885;28;20217;-88
2023/05/12 02:41:33;;;;;;;12.30;11.10;;;14.10;99.90;;;;;;5015616;28;20201;-88
2023/05/12 02:43:59;;;;;;;12.30;11.30;;;14.00;99.90;;;;;;5012800;28;20250;-87
2023/05/12 02:46:24;;;;;;;11.03;10.10;;;14.00;99.90;;;;;;4995726;28;20570;-87
2023/05/12 02:48:50;;;;;;;13.43;11.50;;;14.00;99.90;;;;;;5002378;28;20213;-87
2023/05/12 02:51:16;;;;;;;12.50;11.40;;;13.90;99.90;;;;;;5014055;28;20179;-87
2023/05/12 02:53:45;;;;;;;12.03;10.87;;;13.80;99.90;;;;;;5014937;28;20238;-88
2023/05/12 02:56:11;;;;;;;12.57;11.37;;;13.80;99.90;;;;;;5014441;28;20189;-88
2023/05/12 02:58:36;;;;;;;12.50;11.37;;;13.80;99.90;;;;;;5014702;28;20345;-87
2023/05/12 03:01:02;;;;;;;11.70;10.70;;;13.70;99.90;;;;;;5016185;28;20186;-90
2023/05/12 03:03:28;;;;;;;12.97;11.67;;;13.70;99.90;;;;;;5017264;28;20223;-87
2023/05/12 03:05:54;;;;;;;12.30;11.13;;;13.70;99.90;;;;;;5016275;28;20680;-87
2023/05/12 03:08:20;;;;;;;13.17;11.97;;;13.80;99.90;;;;;;4997727;28;20279;-87
2023/05/12 03:10:46;;;;;;;12.00;10.97;;;13.80;99.90;;;;;;5014662;28;20633;-88
2023/05/12 03:13:11;;;;;;;12.60;11.37;;;13.90;99.90;;;;;;4997142;28;20180;-88
2023/05/12 03:15:37;;;;;;;11.77;10.77;;;13.90;99.90;;;;;;5013355;28;20179;-86
2023/05/12 03:18:03;;;;;;;12.63;11.43;;;14.00;99.90;;;;;;5013198;28;20208;-87
2023/05/12 03:20:29;;;;;;;12.83;11.63;;;14.00;99.90;;;;;;5004566;28;20190;-86
2023/05/12 03:22:54;;;;;;;12.87;11.57;;;14.10;99.90;;;;;;4978215;28;20266;-88
2023/05/12 03:25:20;;;;;;;12.40;11.30;;;14.10;99.90;;;;;;4978637;28;20193;-87
2023/05/12 03:27:46;;;;;;;12.87;11.77;;;14.10;99.90;;;;;;4995167;28;20218;-88
2023/05/12 03:30:12;;;;;;;12.77;11.67;;;14.10;99.90;;;;;;4995965;28;20208;-87
2023/05/12 03:32:38;;;;;;;12.63;11.53;;;14.10;99.90;;;;;;5012530;28;20191;-88
2023/05/12 03:35:05;;;;;;;13.00;11.80;;;14.20;99.90;;;;;;5015878;28;20255;-87
2023/05/12 03:37:32;;;;;;;12.87;11.70;;;14.10;99.90;;;;;;5015999;28;20232;-88
2023/05/12 03:39:58;;;;;;;12.80;11.60;;;14.20;99.90;;;;;;5015412;28;20258;-88
2023/05/12 03:42:24;;;;;;;13.33;12.13;;;14.10;99.90;;;;;;5013795;28;20234;-87
2023/05/12 03:44:52;;;;;;;12.57;11.30;;;14.00;99.90;;;;;;5003434;28;20267;-87
2023/05/12 03:47:18;;;;;;;13.17;11.97;;;14.00;99.90;;;;;;4996342;28;20207;-88
2023/05/12 03:49:44;;;;;;;13.20;11.90;;;13.90;99.90;;;;;;4997035;28;20259;-86
2023/05/12 03:52:11;;;;;;;12.63;11.53;;;13.80;99.90;;;;;;5013191;28;20599;-88
2023/05/12 03:54:36;;;;;;;11.87;10.67;;;13.80;99.90;;;;;;5011043;28;20189;-87
2023/05/12 03:57:02;;;;;;;12.77;11.60;;;13.70;99.90;;;;;;5011195;28;20179;-87
2023/05/12 03:59:31;;;;;;;12.30;11.20;;;13.70;99.90;;;;;;4995847;28;20199;-88
2023/05/12 04:01:57;;;;;;;12.93;11.73;;;13.70;99.90;;;;;;5014568;28;20889;-88
2023/05/12 04:04:23;;;;;;;11.27;10.27;;;13.60;99.90;;;;;;5013948;28;20894;-87
2023/05/12 04:06:49;;;;;;;11.30;10.37;;;13.70;99.90;;;;;;5014747;28;20204;-88
2023/05/12 04:09:17;;;;;;;11.77;10.60;;;13.70;99.90;;;;;;5013730;28;20193;-88
2023/05/12 04:11:43;;;;;;;11.50;10.40;;;13.60;99.90;;;;;;5012005;28;20176;-88
2023/05/12 04:14:10;;;;;;;10.40;9.47;;;13.60;99.90;;;;;;5012345;28;20179;-87
2023/05/12 04:16:35;;;;;;;11.27;10.27;;;13.70;99.90;;;;;;5012462;28;20191;-87
2023/05/12 04:19:02;;;;;;;10.30;9.40;;;13.70;99.90;;;;;;5012685;28;20201;-88
2023/05/12 04:21:27;;;;;;;10.53;9.53;;;13.80;99.90;;;;;;5014619;28;20185;-88
2023/05/12 04:23:53;;;;;;;11.67;10.67;;;13.80;99.90;;;;;;5012549;28;20188;-88
2023/05/12 04:26:19;;;;;;;11.23;10.13;;;13.80;99.90;;;;;;4996697;28;20258;-88
2023/05/12 04:28:46;;;;;;;10.87;10.07;;;13.70;99.90;;;;;;5014098;28;20275;-87
2023/05/12 04:31:12;;;;;;;11.90;10.70;;;13.70;99.90;;;;;;5014676;28;20173;-87
2023/05/12 04:33:37;;;;;;;12.60;11.50;;;13.70;99.90;;;;;;5014480;28;20660;-87
2023/05/12 04:36:04;;;;;;;12.40;11.40;;;13.70;99.90;;;;;;5015341;28;20575;-87
2023/05/12 04:38:30;;;;;;;13.20;12.00;;;13.80;99.90;;;;;;5012667;28;20221;-88
2023/05/12 04:40:59;;;;;;;12.47;11.40;;;13.70;99.90;;;;;;5011269;28;20224;-88
2023/05/12 04:43:26;;;;;;;12.87;11.57;;;13.70;99.90;;;;;;5010666;28;20238;-88
2023/05/12 04:45:54;;;;;;;11.73;10.73;;;13.70;99.90;;;;;;4992329;28;20192;-87
2023/05/12 04:48:20;;;;;;;12.70;11.50;;;13.70;99.90;;;;;;4990658;28;20220;-87
2023/05/12 04:50:47;;;;;;;12.10;10.97;;;13.70;99.90;;;;;;4991030;28;20178;-88
2023/05/12 04:53:14;;;;;;;11.57;10.57;;;13.80;99.90;;;;;;4991634;28;20296;-88
2023/05/12 04:55:39;;;;;;;11.17;10.23;;;13.80;99.90;;;;;;4993881;28;20182;-87
2023/05/12 04:58:05;;;;;;;11.07;10.10;;;13.80;99.90;;;;;;4999368;28;20200;-88
2023/05/12 05:00:30;;;;;;;11.77;10.70;;;13.90;99.90;;;;;;5008836;28;20684;-87
2023/05/12 05:02:56;;;;;;;10.53;9.73;;;13.90;99.90;;;;;;5013811;28;20188;-85
2023/05/12 05:05:22;;;;;;;10.43;9.53;;;13.90;99.90;;;;;;5014315;28;20182;-86
2023/05/12 05:07:48;;;;;;;10.57;9.53;;;13.90;99.90;;;;;;5011811;28;20732;-86
2023/05/12 05:10:14;;;;;;;10.20;9.30;;;13.80;99.90;;;;;;4993866;28;20181;-85
2023/05/12 05:12:40;;;;;;;10.07;9.07;;;13.90;99.90;;;;;;5014343;28;20188;-86
2023/05/12 05:15:08;;;;;;;9.70;8.90;;;13.80;99.90;;;;;;5015760;28;20184;-86
2023/05/12 05:17:34;;;;;;;9.50;8.70;;;13.80;99.90;;;;;;5015372;28;20441;-87
2023/05/12 05:20:00;;;;;;;9.33;8.53;;;13.80;99.90;;;;;;5016563;28;20606;-86
2023/05/12 05:22:26;;;;;;;9.73;8.93;;;13.80;99.90;;;;;;5017204;28;20215;-88
2023/05/12 05:24:52;;;;;;;9.37;8.57;;;13.80;99.90;;;;;;4980647;28;20199;-88
2023/05/12 05:27:18;;;;;;;8.60;7.90;;;13.70;99.90;;;;;;5005237;28;20243;-86
2023/05/12 05:29:43;;;;;;;9.47;8.50;;;13.70;99.90;;;;;;5017240;28;20193;-86
2023/05/12 05:32:09;;;;;;;9.00;8.30;;;13.60;99.90;;;;;;5016444;28;20182;-86
2023/05/12 05:34:34;;;;;;;8.43;7.63;;;13.60;99.90;;;;;;5016821;28;20190;-86
2023/05/12 05:37:00;;;;;;;8.33;7.63;;;13.60;99.90;;;;;;5016177;28;20257;-86
2023/05/12 05:39:29;;;;;;;8.47;7.67;;;13.60;99.90;;;;;;5016315;28;20191;-86
2023/05/12 05:41:55;;;;;;;7.67;7.07;;;13.70;99.90;;;;;;5016031;28;20177;-87
2023/05/12 05:44:21;;;;;;;8.10;7.37;;;13.60;99.90;;;;;;5008117;28;20239;-87
2023/05/12 05:46:46;;;;;;;7.70;7.10;;;13.70;99.90;;;;;;4993482;28;20220;-86
2023/05/12 05:49:12;;;;;;;7.73;7.03;;;13.70;99.90;;;;;;4992840;28;20708;-86
2023/05/12 05:51:37;;;;;;;7.50;6.90;;;13.80;99.90;;;;;;4993717;28;20213;-86
2023/05/12 05:54:03;;;;;;;7.33;6.67;;;13.90;99.90;;;;;;5016737;28;20525;-85
2023/05/12 05:56:29;;;;;;;7.30;6.70;;;14.10;99.90;;;;;;5007265;28;20764;-86
2023/05/12 05:58:55;;;;;;;7.83;7.00;;;14.10;99.90;;;;;;5010555;28;20209;-86
2023/05/12 06:01:21;;;;;;;7.03;6.50;;;14.20;99.90;;;;;;5014486;28;20176;-86
2023/05/12 06:03:47;;;;;;;7.30;6.60;;;14.30;99.90;;;;;;5012338;28;20190;-86
2023/05/12 06:06:12;;;;;;;8.00;7.30;;;14.30;99.90;;;;;;5008930;28;20210;-86
2023/05/12 06:08:38;;;;;;;7.43;6.87;;;14.20;99.90;;;;;;4994754;28;20640;-85
2023/05/12 06:11:04;;;;;;;7.00;6.40;;;14.20;99.90;;;;;;5012144;28;20225;-85
2023/05/12 06:13:30;;;;;;;6.53;6.03;;;14.20;99.90;;;;;;5012983;28;20256;-87
2023/05/12 06:15:55;;;;;;;6.53;5.97;;;14.20;99.90;;;;;;5013019;28;20679;-87
2023/05/12 06:18:22;;;;;;;6.33;5.83;;;14.20;99.90;;;;;;5012969;28;20209;-87
2023/05/12 06:20:47;;;;;;;8.87;6.27;;;14.30;99.90;;;;;;4996858;28;20193;-86
2023/05/12 06:23:13;;;;;;;5.83;5.43;;;14.20;99.90;;;;;;5012965;28;20200;-87
2023/05/12 06:25:39;;;;;;;5.30;4.90;;;14.30;99.90;;;;;;5015166;28;20245;-86
2023/05/12 06:28:04;;;;;;;5.20;4.80;;;14.30;99.90;;;;;;4996147;28;20333;-87
2023/05/12 06:30:30;;;;;;;5.57;4.70;;;14.30;99.90;;;;;;5014688;28;20182;-86
2023/05/12 06:32:56;;;;;;;5.73;5.23;;;14.40;99.10;;;;;;4998154;28;20238;-86
2023/05/12 06:35:21;;;;;;;4.90;4.50;;;14.40;99.90;;;;;;5013320;28;20185;-86
2023/05/12 06:37:49;;;;;;;4.60;4.20;;;14.50;97.90;;;;;;5013234;28;20208;-86
2023/05/12 06:40:16;;;;;;;4.70;4.30;;;14.50;97.50;;;;;;4995440;28;20203;-85
2023/05/12 06:42:42;;;;;;;4.27;3.90;;;14.60;98.80;;;;;;5011744;28;20185;-87
2023/05/12 06:45:08;;;;;;;4.17;3.87;;;14.60;97.60;;;;;;4999265;28;20187;-86
2023/05/12 06:47:34;;;;;;;3.90;3.60;;;14.50;95.60;;;;;;4993027;28;20232;-85
2023/05/12 06:49:59;;;;;;;4.10;3.77;;;14.60;95.90;;;;;;4994212;28;20175;-86
2023/05/12 06:52:25;;;;;;;4.00;3.70;;;14.60;95.80;;;;;;4999832;28;20188;-86
2023/05/12 06:54:51;;;;;;;4.27;3.97;;;14.60;96.10;;;;;;5015753;28;20184;-85
2023/05/12 06:57:16;;;;;;;4.40;4.00;;;14.60;95.40;;;;;;5013869;28;20175;-87
2023/05/12 06:59:42;;;;;;;5.03;4.63;;;14.60;96.30;;;;;;5013600;28;20260;-86
2023/05/12 07:02:08;;;;;;;5.47;4.97;;;14.60;95.60;;;;;;5012055;28;20399;-86
2023/05/12 07:04:34;;;;;;;5.00;4.50;;;14.70;94.60;;;;;;5011830;28;20540;-86
2023/05/12 07:07:00;;;;;;;5.23;4.73;;;14.80;95.90;;;;;;5011158;28;20198;-87
2023/05/12 07:09:26;;;;;;;5.17;4.67;;;15.00;93.10;;;;;;5011103;28;20271;-85
2023/05/12 07:11:51;;;;;;;4.80;4.40;;;15.10;93.20;;;;;;5011068;28;20188;-87
2023/05/12 07:14:17;;;;;;;5.13;4.73;;;15.10;92.50;;;;;;5010997;28;20285;-85
2023/05/12 07:16:43;;;;;;;5.50;5.00;;;15.20;91.70;;;;;;5013813;28;20187;-86
2023/05/12 07:19:08;;;;;;;5.00;4.60;;;15.20;92.30;;;;;;5012728;28;20262;-86
2023/05/12 07:21:35;;;;;;;5.23;4.83;;;15.20;89.30;;;;;;5013325;28;20597;-86
2023/05/12 07:24:01;;;;;;;4.87;4.47;;;15.00;91.00;;;;;;5013601;28;20609;-85
2023/05/12 07:26:28;;;;;;;4.90;4.50;;;15.10;93.30;;;;;;5013284;28;20208;-86
2023/05/12 07:28:53;;;;;;;5.87;4.57;;;15.20;92.00;;;;;;4995686;28;20266;-87
2023/05/12 07:31:19;;;;;;;4.70;4.27;;;15.30;90.70;;;;;;5012793;28;20181;-86
2023/05/12 07:33:45;;;;;;;5.10;4.70;;;15.40;89.60;;;;;;5012111;28;20638;-86
2023/05/12 07:36:10;;;;;;;4.93;4.53;;;15.60;90.00;;;;;;5013215;28;20519;-86
2023/05/12 07:38:36;;;;;;;5.50;5.07;;;15.70;88.30;;;;;;4992930;28;20284;-84
2023/05/12 07:41:02;;;;;;;4.77;4.37;;;15.70;88.40;;;;;;5010825;28;20185;-86
2023/05/12 07:43:28;;;;;;;4.90;4.60;;;15.70;89.50;;;;;;5012152;28;20176;-87
2023/05/12 07:45:54;;;;;;;5.13;4.73;;;15.90;88.50;;;;;;4992153;28;20327;-85
2023/05/12 07:48:21;;;;;;;5.17;4.77;;;16.10;86.50;;;;;;4975257;28;20302;-86
2023/05/12 07:50:46;;;;;;;5.23;4.80;;;16.10;85.90;;;;;;5007952;28;20174;-86
2023/05/12 07:53:12;;;;;;;5.03;4.73;;;16.30;85.70;;;;;;4998124;28;20188;-87
2023/05/12 07:55:38;;;;;;;5.50;5.10;;;16.30;84.30;;;;;;4994323;28;20182;-85
2023/05/12 07:58:03;;;;;;;5.33;4.90;;;16.30;83.60;;;;;;4991293;28;20213;-86
2023/05/12 08:00:29;;;;;;;5.10;4.80;;;16.30;82.70;;;;;;4991229;28;20213;-88
2023/05/12 08:02:55;;;;;;;4.90;4.50;;;16.20;83.40;;;;;;4991608;28;20185;-88
2023/05/12 08:05:20;;;;;;;5.07;4.73;;;16.30;83.70;;;;;;5009007;28;20229;-87
2023/05/12 08:07:46;;;;;;;5.37;4.97;;;16.40;81.70;;;;;;5013010;28;20638;-87
2023/05/12 08:10:12;;;;;;;5.53;4.53;;;16.50;82.00;;;;;;5013673;28;20180;-86
2023/05/12 08:12:39;;;;;;;5.40;5.00;;;16.50;81.70;;;;;;5013927;28;20173;-86
2023/05/12 08:15:06;;;;;;;5.03;4.63;;;16.60;81.30;;;;;;5013202;28;20177;-87
2023/05/12 08:17:32;;;;;;;5.57;5.17;;;16.60;80.60;;;;;;5011782;28;20202;-86
2023/05/12 08:19:57;;;;;;;5.73;5.13;;;16.80;79.70;;;;;;5013056;28;20185;-86
2023/05/12 08:22:23;;;;;;;4.73;4.43;;;16.80;80.30;;;;;;5011794;28;20641;-86
2023/05/12 08:24:48;;;;;;;4.83;4.43;;;16.90;78.60;;;;;;5013067;28;20310;-86
2023/05/12 08:27:14;;;;;;;4.87;4.47;;;16.90;78.70;;;;;;4996860;28;20593;-87
2023/05/12 08:29:40;;;;;;;4.30;4.00;;;16.90;77.20;;;;;;5014470;28;20200;-86
2023/05/12 08:32:06;;;;;;;4.40;4.00;;;16.80;77.20;;;;;;5011986;28;20678;-87
2023/05/12 08:34:31;;;;;;;4.80;4.20;;;16.80;78.10;;;;;;5011856;28;20181;-87
2023/05/12 08:36:57;;;;;;;4.20;3.90;;;16.90;78.20;;;;;;5010179;28;20191;-87
2023/05/12 08:39:23;;;;;;;4.30;3.90;;;16.90;77.60;;;;;;5010008;28;20233;-86
2023/05/12 08:42:01;;;;;;;5.40;4.90;;;16.80;77.90;;;;;;5008795;28;20191;-86
2023/05/12 08:44:27;;;;;;;4.37;4.07;;;16.90;78.90;;;;;;5004204;28;20246;-87
2023/05/12 08:46:56;;;;;;;4.57;4.27;;;16.80;79.10;;;;;;5007853;28;20345;-87
2023/05/12 08:49:23;;;;;;;4.97;4.57;;;16.80;77.40;;;;;;4994430;28;20215;-87
2023/05/12 08:51:51;;;;;;;4.93;4.47;;;16.70;78.40;;;;;;4996516;28;20194;-86
2023/05/12 08:54:20;;;;;;;5.00;4.60;;;16.50;78.50;;;;;;4994967;28;20193;-86
2023/05/12 08:56:46;;;;;;;6.33;5.83;;;16.50;80.60;;;;;;5014208;28;20193;-86
2023/05/12 08:59:12;;;;;;;6.77;6.07;;;16.60;81.20;;;;;;5013890;28;20220;-88
2023/05/12 09:01:41;;;;;;;5.43;5.03;;;16.70;82.90;;;;;;5013538;28;20195;-87
2023/05/12 09:04:08;;;;;;;5.47;4.97;;;16.80;82.30;;;;;;5015521;28;20180;-86
2023/05/12 09:06:34;;;;;;;5.57;5.07;;;16.90;80.90;;;;;;5015748;28;20202;-88
2023/05/12 09:09:00;;;;;;;4.93;4.53;;;17.00;79.30;;;;;;5017268;28;20202;-87
2023/05/12 09:11:26;;;;;;;5.50;4.93;;;17.10;79.50;;;;;;5014772;28;20254;-86
2023/05/12 09:14:11;;;;;;;5.30;4.90;;;17.00;78.30;;;;;;4998778;28;20657;-87
2023/05/12 09:16:44;;;;;;;5.00;4.60;;;16.90;78.50;;;;;;5014848;28;20187;-87
2023/05/12 09:19:09;;;;;;;4.70;4.40;;;16.90;78.00;;;;;;5014936;28;20230;-87
2023/05/12 09:21:36;;;;;;;5.10;4.80;;;17.10;76.10;;;;;;5014816;28;20582;-86
2023/05/12 09:24:04;;;;;;;5.47;5.00;;;17.20;77.10;;;;;;4998877;28;20592;-86
2023/05/12 09:26:31;;;;;;;5.50;5.00;;;17.30;77.80;;;;;;4995346;28;20226;-85
2023/05/12 09:29:07;;;;;;;4.77;4.40;;;17.20;77.10;;;;;;5014856;28;20253;-85
2023/05/12 09:31:33;;;;;;;4.77;4.33;;;17.30;76.90;;;;;;5011976;28;20557;-87
2023/05/12 09:34:01;;;;;;;4.40;4.00;;;17.30;76.60;;;;;;4995248;28;20685;-87
2023/05/12 09:36:27;;;;;;;5.03;4.53;;;17.50;76.30;;;;;;5011242;28;20624;-86
2023/05/12 09:38:59;;;;;;;5.40;4.90;;;17.50;74.90;;;;;;5012340;28;20273;-87
2023/05/12 09:41:25;;;;;;;5.20;4.90;;;17.30;76.20;;;;;;5014728;28;20195;-87
2023/05/12 09:43:53;;;;;;;5.07;4.57;;;17.40;76.80;;;;;;5015753;28;20249;-87
2023/05/12 09:46:19;;;;;;;5.33;4.93;;;17.50;75.60;;;;;;4999595;28;20243;-87
2023/05/12 09:48:47;;;;;;;5.50;5.00;;;17.50;76.50;;;;;;4997017;28;20223;-86
2023/05/12 09:51:19;;;;;;;4.33;4.00;;;17.30;76.20;;;;;;4995145;28;20219;-88
2023/05/12 09:53:45;;;;;;;6.32;4.05;;;17.50;75.70;;;;;;4980224;28;20574;-87
2023/05/12 09:56:15;;;;;;;4.50;3.75;;;17.80;74.30;;;;;;4997786;28;20532;-87
2023/05/12 09:58:44;;;;;;;3.30;3.10;;;17.90;72.80;;;;;;4997570;28;20743;-87
2023/05/12 10:01:16;;;;;;;3.42;3.15;;;18.10;71.90;;;;;;4998694;28;20191;-87
2023/05/12 10:03:44;;;;;;;5.57;3.40;;;18.20;70.00;;;;;;5000732;28;20213;-86
2023/05/12 10:06:18;;;;;;;3.30;3.10;;;18.10;70.20;;;;;;4999602;28;20293;-87
2023/05/12 10:08:52;;;;;;;3.20;3.00;;;18.30;71.10;;;;;;4998563;28;20225;-87
2023/05/12 10:11:20;;;;;;;2.90;2.70;;;18.30;69.00;;;;;;4996674;28;20173;-87
2023/05/12 10:13:46;;;;;;;3.40;2.90;;;18.20;70.30;;;;;;4997807;28;20182;-86
2023/05/12 10:16:12;;;;;;;3.08;2.88;;;18.40;69.90;;;;;;4998032;28;20201;-86
2023/05/12 10:18:38;;;;;;;3.85;3.55;;;18.30;70.00;;;;;;4998973;28;20216;-87
2023/05/12 10:21:05;;;;;;;4.20;3.90;;;17.90;72.30;;;;;;5010959;28;20184;-86
2023/05/12 10:23:31;;;;;;;3.85;3.33;;;17.70;73.60;;;;;;4998055;28;20698;-87
2023/05/12 10:26:01;;;;;;;5.37;3.90;;;17.60;75.60;;;;;;5018007;28;20180;-89
2023/05/12 10:28:27;;;;;;;3.40;3.20;;;17.70;75.20;;;;;;5013293;28;20262;-86
2023/05/12 10:30:54;;;;;;;4.00;3.70;;;17.40;77.40;;;;;;5012300;28;20187;-88
2023/05/12 10:33:20;;;;;;;4.67;4.27;;;17.30;78.60;;;;;;5012497;28;20176;-87
2023/05/12 10:35:47;;;;;;;3.53;3.23;;;17.20;79.90;;;;;;5014952;28;20179;-87
2023/05/12 10:38:18;;;;;;;3.80;3.50;;;17.10;80.20;;;;;;4996073;28;20217;-88
2023/05/12 10:40:51;;;;;;;4.17;3.20;;;17.10;79.50;;;;;;5015412;28;20186;-88
2023/05/12 10:43:22;;;;;;;3.50;3.20;;;17.10;79.50;;;;;;5015643;28;20221;-87
2023/05/12 10:46:08;;;;;;;3.00;2.80;;;17.00;80.10;;;;;;4993473;28;20221;-88
2023/05/12 10:48:37;;;;;;;2.87;2.67;;;17.00;78.40;;;;;;5012952;28;20257;-88
2023/05/12 10:51:10;;;;;;;2.30;2.20;;;17.10;77.20;;;;;;5011345;28;20182;-87
2023/05/12 10:53:37;;;;;;;2.20;2.10;;;17.00;77.70;;;;;;5015171;28;20301;-87
2023/05/12 10:56:05;;;;;;;2.77;2.57;;;17.10;76.00;;;;;;5010744;28;20255;-87
2023/05/12 10:58:31;;;;;;;2.30;2.10;;;17.40;75.60;;;;;;4998769;28;20197;-87
2023/05/12 11:01:06;;;;;;;1.98;1.88;;;17.30;72.50;;;;;;5018676;28;20187;-86
2023/05/12 11:03:33;;;;;;;2.33;1.93;;;17.30;72.00;;;;;;5017332;28;20229;-88
2023/05/12 11:06:00;;;;;;;2.10;2.00;;;17.30;72.20;;;;;;5018702;28;20654;-87
2023/05/12 11:08:26;;;;;;;2.13;2.03;;;17.30;73.20;;;;;;5017059;28;20234;-90
2023/05/12 11:10:52;;;;;;;7.28;2.60;;;17.50;72.70;;;;;;5016809;28;20189;-88
2023/05/12 11:13:19;;;;;;;2.25;2.15;;;17.60;72.00;;;;;;5016509;28;20263;-89
2023/05/12 11:15:46;;;;;;;2.10;2.00;;;17.70;71.20;;;;;;4999591;28;20182;-89
2023/05/12 11:18:12;;;;;;;2.40;2.30;;;17.70;70.90;;;;;;4999704;28;20208;-89
2023/05/12 11:20:38;;;;;;;2.30;2.20;;;17.80;68.70;;;;;;5016308;28;20186;-89
2023/05/12 11:23:04;;;;;;;2.30;2.10;;;17.90;70.30;;;;;;5018122;28;20201;-88
2023/05/12 11:25:30;;;;;;;2.53;2.40;;;18.10;69.90;;;;;;5000776;28;20204;-89
2023/05/12 11:27:55;;;;;;;2.75;2.65;;;18.10;69.00;;;;;;5018610;28;20950;-91
2023/05/12 11:30:21;;;;;;;3.83;3.00;;;18.10;69.10;;;;;;5000689;28;20184;-91
2023/05/12 11:32:58;;;;;;;3.00;2.80;;;18.20;69.60;;;;;;5000364;28;20227;-89
2023/05/12 11:35:29;;;;;;;2.97;2.78;;;18.30;69.30;;;;;;5011355;28;20180;-89
2023/05/12 11:37:55;;;;;;;3.55;3.35;;;18.50;70.30;;;;;;5016410;28;20273;-88
2023/05/12 11:40:22;;;;;;;4.40;3.65;;;18.60;70.30;;;;;;5017171;28;20213;-87
2023/05/12 11:42:52;;;;;;;4.15;3.60;;;18.70;70.40;;;;;;5014614;28;20186;-88
2023/05/12 11:45:27;;;;;;;3.78;3.47;;;18.80;68.60;;;;;;5011368;28;20205;-87
2023/05/12 11:48:08;;;;;;;4.18;3.88;;;18.70;69.10;;;;;;5005383;28;20336;-89
2023/05/12 11:50:40;;;;;;;15.98;4.93;;;18.90;68.10;;;;;;5011545;28;20174;-88
2023/05/12 11:53:13;;;;;;;3.55;3.30;;;19.10;68.60;;;;;;5011403;28;20304;-90
2023/05/12 11:55:50;;;;;;;4.18;3.83;;;19.00;69.00;;;;;;5012353;28;20180;-88
2023/05/12 11:58:21;;;;;;;3.28;2.88;;;18.80;69.60;;;;;;5014810;28;20212;-89
2023/05/12 12:00:50;;;;;;;3.20;2.90;;;18.80;68.10;;;;;;5015010;28;20224;-89
2023/05/12 12:03:16;;;;;;;3.00;2.85;;;19.20;65.70;;;;;;4998799;28;20190;-89
2023/05/12 12:05:44;;;;;;;3.10;2.90;;;19.70;65.90;;;;;;5016983;28;20169;-90
2023/05/12 12:08:13;;;;;;;3.85;3.65;;;20.00;63.90;;;;;;5014687;28;20217;-89
2023/05/12 12:10:44;;;;;;;3.30;3.10;;;20.20;61.90;;;;;;5015910;28;20197;-89
2023/05/12 12:13:10;;;;;;;3.17;2.88;;;19.90;62.40;;;;;;5016981;28;20216;-90
2023/05/12 12:15:35;;;;;;;2.90;2.80;;;19.80;60.00;;;;;;5015657;28;20201;-89
2023/05/12 12:18:01;;;;;;;3.20;3.00;;;19.70;59.90;;;;;;5015473;28;20209;-89
2023/05/12 12:20:27;;;;;;;3.63;2.90;;;19.80;61.80;;;;;;4997856;28;20236;-89
2023/05/12 12:22:53;;;;;;;3.03;2.83;;;19.80;60.90;;;;;;5000176;28;20189;-88
2023/05/12 12:25:20;;;;;;;3.50;3.20;;;19.70;61.50;;;;;;5016353;28;20193;-88
2023/05/12 12:27:47;;;;;;;3.45;3.25;;;19.70;62.80;;;;;;5015080;28;20220;-89
2023/05/12 12:30:15;;;;;;;3.80;3.50;;;19.60;63.20;;;;;;5010928;28;20658;-90
2023/05/12 12:32:42;;;;;;;4.07;3.60;;;19.30;66.00;;;;;;5015942;28;20174;-91
2023/05/12 12:35:08;;;;;;;4.20;3.90;;;19.40;67.60;;;;;;5017949;28;20177;-90
2023/05/12 12:37:34;;;;;;;5.32;4.53;;;19.40;68.10;;;;;;5014387;28;20208;-89
2023/05/12 12:40:06;;;;;;;5.07;4.60;;;19.40;67.90;;;;;;5015908;28;20181;-90